Startpagina
METAR-TAF:

METAR-TAF

Vliegvelden :

Luchthaven Genève

Genève, Zwitserland

breedte: 46-15N, lengte: 006-08E, hoogte: 420 m

Actueel weer

Dit bericht is 40 minuten geleden gemaakt, om 13:20 UTC
Wind 6 kt uit het oostnoordoosten
Temperatuur 21°C
Vochtigheid 33%
Druk 1022 hPa
Zicht 10 km of meer
Weinig wolken op 6000 ft

METAR: LSGG 101320Z 07006KT 9999 FEW060 21/04 Q1022 NOSIG

Tijdstip: 16:00 (14:00 UTC)

Verwachting

Dit bericht is 2 uur en het 35 minuten geleden gemaakt, om 11:25 UTC
Verwachting geldig van 10 om 12 UTC tot 11 om 18 UTC
Wind 6 kt uit het oostnoordoosten
Zicht 10 km of meer
Weinig wolken op 5000 ft
Wijzigt naar
van 10 om 16 UTC tot 10 om 18 UTC
Zicht 10 km of meer
geen wolken onder 1500 m en geen cumulonimbus
Wijzigt naar
van 11 om 10 UTC tot 11 om 12 UTC
Zicht 10 km of meer
Weinig wolken op 5000 ft

TAF: LSGG 101125Z 1012/1118 06006KT 9999 FEW050 TX23/1015Z TN06/1105Z TX24/1115Z BECMG 1016/1018 CAVOK BECMG 1110/1112 9999 FEW050

Waarnemingen en weersverwachtingen van meer dan 4000 vliegvelden (METAR en TAF).

De beschikbare stations zijn de gele en rode punten op de kaart.

Ga met uw muis naar het station om de naam te zien.

Klik dan om waarnemingen en weersverwachtingen te zien.

kaart wijzigen: klik op de groene knoppen met een zwart kruis om in te zoomen, op de groene knop met een streepje om uit te zoomen of op de groene pijlen voor aangrenzende kaarten.


METAR-TAF: